TK981 LTAC-LTFH
Flight info
| Callsign | TK981 |
|---|---|
| Flight time | 0h 37m |
| Altitude | 27000 |
| Route | ILHAN W71 ERGUN UW71 HAVZA |
| Aircraft | C700/M-SBDGHM1RWXY/LB2 |
Departure
| Time | 2026-05-08 08:43 |
|---|---|
| Airport | Esenboğa International Airport (LTAC) |
Arrival
| Time | 2026-05-08 09:21 |
|---|---|
| Airport | Samsun-Çarşamba Airport (LTFH) |
| Time | Latitude | Longitude | Altitude | Speed | Heading |
|---|---|---|---|---|---|
| 2026-05-08 08:36 | 40.11829 | 32.99291 | 3107 ft | 0 kts | 250° |
| 2026-05-08 08:37 | 40.11828 | 32.99286 | 3107 ft | 3 kts | 250° |
| 2026-05-08 08:37 | 40.11810 | 32.99225 | 3107 ft | 12 kts | 250° |
| 2026-05-08 08:37 | 40.11775 | 32.99119 | 3107 ft | 13 kts | 261° |
| 2026-05-08 08:37 | 40.11838 | 32.99036 | 3108 ft | 16 kts | 11° |
| 2026-05-08 08:38 | 40.11947 | 32.99131 | 3109 ft | 21 kts | 36° |
| 2026-05-08 08:38 | 40.12080 | 32.99256 | 3111 ft | 26 kts | 36° |
| 2026-05-08 08:38 | 40.12233 | 32.99409 | 3112 ft | 30 kts | 37° |
| 2026-05-08 08:38 | 40.12407 | 32.99573 | 3114 ft | 31 kts | 34° |
| 2026-05-08 08:39 | 40.12584 | 32.99735 | 3117 ft | 32 kts | 37° |
| 2026-05-08 08:39 | 40.12762 | 32.99912 | 3118 ft | 33 kts | 37° |
| 2026-05-08 08:39 | 40.12948 | 33.00087 | 3120 ft | 33 kts | 34° |
| 2026-05-08 08:39 | 40.13135 | 33.00269 | 3121 ft | 34 kts | 38° |
| 2026-05-08 08:40 | 40.13320 | 33.00453 | 3121 ft | 34 kts | 36° |
| 2026-05-08 08:40 | 40.13514 | 33.00631 | 3126 ft | 34 kts | 34° |
| 2026-05-08 08:40 | 40.13702 | 33.00809 | 3127 ft | 32 kts | 36° |
| 2026-05-08 08:40 | 40.13868 | 33.00968 | 3129 ft | 23 kts | 36° |
| 2026-05-08 08:41 | 40.13946 | 33.01045 | 3130 ft | 14 kts | 37° |
| 2026-05-08 08:41 | 40.14042 | 33.01069 | 3130 ft | 16 kts | 341° |
| 2026-05-08 08:41 | 40.14105 | 33.00954 | 3130 ft | 18 kts | 272° |
| 2026-05-08 08:41 | 40.14139 | 33.00856 | 3130 ft | 12 kts | 316° |
| 2026-05-08 08:42 | 40.14193 | 33.00781 | 3130 ft | 10 kts | 307° |
| 2026-05-08 08:42 | 40.14201 | 33.00690 | 3130 ft | 12 kts | 236° |
| 2026-05-08 08:42 | 40.14165 | 33.00649 | 3130 ft | 0 kts | 214° |
| 2026-05-08 08:42 | 40.14150 | 33.00635 | 3130 ft | 14 kts | 214° |
| 2026-05-08 08:43 | 40.13802 | 33.00302 | 3126 ft | 113 kts | 215° |
| 2026-05-08 08:43 | 40.12951 | 32.99523 | 3536 ft | 165 kts | 216° |
| 2026-05-08 08:43 | 40.11986 | 32.98655 | 4808 ft | 173 kts | 217° |
| 2026-05-08 08:43 | 40.10965 | 32.97624 | 6035 ft | 198 kts | 219° |
| 2026-05-08 08:44 | 40.09805 | 32.96498 | 7241 ft | 223 kts | 218° |
| 2026-05-08 08:44 | 40.08470 | 32.95238 | 8394 ft | 249 kts | 217° |
| 2026-05-08 08:44 | 40.06978 | 32.93833 | 9589 ft | 277 kts | 217° |
| 2026-05-08 08:44 | 40.05362 | 32.92305 | 10894 ft | 297 kts | 217° |
| 2026-05-08 08:45 | 40.03637 | 32.90669 | 12095 ft | 320 kts | 218° |
| 2026-05-08 08:45 | 40.01808 | 32.88945 | 13804 ft | 327 kts | 218° |
| 2026-05-08 08:45 | 39.99932 | 32.87176 | 15200 ft | 337 kts | 218° |
| 2026-05-08 08:45 | 39.98000 | 32.85351 | 16595 ft | 349 kts | 218° |
| 2026-05-08 08:46 | 39.95950 | 32.83411 | 16916 ft | 392 kts | 218° |
| 2026-05-08 08:46 | 39.93459 | 32.81644 | 17854 ft | 406 kts | 199° |
| 2026-05-08 08:46 | 39.90749 | 32.81131 | 20293 ft | 382 kts | 179° |
| 2026-05-08 08:46 | 39.88161 | 32.81852 | 21831 ft | 388 kts | 160° |
| 2026-05-08 08:47 | 39.85913 | 32.83790 | 22726 ft | 400 kts | 134° |
| 2026-05-08 08:47 | 39.84407 | 32.86855 | 23809 ft | 404 kts | 109° |
| 2026-05-08 08:47 | 39.83943 | 32.90452 | 24693 ft | 404 kts | 85° |
| 2026-05-08 08:47 | 39.84543 | 32.93984 | 25613 ft | 399 kts | 62° |
| 2026-05-08 08:48 | 39.86062 | 32.96897 | 26476 ft | 393 kts | 40° |
| 2026-05-08 08:48 | 39.88296 | 32.98921 | 27102 ft | 396 kts | 21° |
| 2026-05-08 08:48 | 39.91013 | 32.99904 | 27128 ft | 416 kts | 6° |
| 2026-05-08 08:48 | 39.93972 | 33.00406 | 27126 ft | 440 kts | 3° |
| 2026-05-08 08:49 | 39.97064 | 33.00799 | 27128 ft | 464 kts | 4° |
| 2026-05-08 08:49 | 40.00231 | 33.01388 | 27121 ft | 448 kts | 7° |
| 2026-05-08 08:49 | 40.03206 | 33.02108 | 27106 ft | 423 kts | 8° |
| 2026-05-08 08:49 | 40.06059 | 33.03249 | 27098 ft | 440 kts | 22° |
| 2026-05-08 08:50 | 40.08619 | 33.05680 | 27104 ft | 469 kts | 40° |
| 2026-05-08 08:50 | 40.10724 | 33.08929 | 27115 ft | 478 kts | 50° |
| 2026-05-08 08:50 | 40.12579 | 33.12557 | 27119 ft | 478 kts | 54° |
| 2026-05-08 08:50 | 40.14314 | 33.16258 | 27116 ft | 476 kts | 55° |
| 2026-05-08 08:51 | 40.16096 | 33.19890 | 27111 ft | 471 kts | 51° |
| 2026-05-08 08:51 | 40.18054 | 33.23271 | 27110 ft | 470 kts | 47° |
| 2026-05-08 08:51 | 40.20104 | 33.26606 | 27110 ft | 472 kts | 48° |
| 2026-05-08 08:51 | 40.22069 | 33.30087 | 27107 ft | 475 kts | 51° |
| 2026-05-08 08:52 | 40.23954 | 33.33651 | 27106 ft | 475 kts | 51° |
| 2026-05-08 08:52 | 40.25868 | 33.37124 | 27107 ft | 473 kts | 49° |
| 2026-05-08 08:52 | 40.27845 | 33.40558 | 27105 ft | 469 kts | 49° |
| 2026-05-08 08:52 | 40.29786 | 33.43989 | 27102 ft | 468 kts | 50° |
| 2026-05-08 08:53 | 40.31692 | 33.47464 | 27100 ft | 470 kts | 50° |
| 2026-05-08 08:53 | 40.33606 | 33.50939 | 27101 ft | 470 kts | 50° |
| 2026-05-08 08:53 | 40.35526 | 33.54369 | 27101 ft | 471 kts | 50° |
| 2026-05-08 08:53 | 40.37467 | 33.57840 | 27114 ft | 472 kts | 50° |
| 2026-05-08 08:54 | 40.39394 | 33.61326 | 27100 ft | 470 kts | 50° |
| 2026-05-08 08:54 | 40.41311 | 33.64804 | 27095 ft | 467 kts | 50° |
| 2026-05-08 08:54 | 40.43164 | 33.68250 | 27088 ft | 469 kts | 53° |
| 2026-05-08 08:54 | 40.44706 | 33.72075 | 27085 ft | 477 kts | 62° |
| 2026-05-08 08:55 | 40.45852 | 33.76189 | 27087 ft | 482 kts | 68° |
| 2026-05-08 08:55 | 40.46891 | 33.80393 | 27091 ft | 482 kts | 68° |
| 2026-05-08 08:55 | 40.47934 | 33.84561 | 27108 ft | 481 kts | 68° |
| 2026-05-08 08:55 | 40.48980 | 33.88745 | 27097 ft | 480 kts | 68° |
| 2026-05-08 08:56 | 40.50003 | 33.92875 | 27098 ft | 479 kts | 68° |
| 2026-05-08 08:56 | 40.51164 | 33.96954 | 27093 ft | 475 kts | 63° |
| 2026-05-08 08:56 | 40.52423 | 34.00970 | 27092 ft | 474 kts | 63° |
| 2026-05-08 08:56 | 40.53664 | 34.04987 | 27093 ft | 475 kts | 64° |
| 2026-05-08 08:57 | 40.54898 | 34.09023 | 27093 ft | 476 kts | 64° |
| 2026-05-08 08:57 | 40.56130 | 34.13030 | 27093 ft | 477 kts | 64° |
| 2026-05-08 08:57 | 40.57376 | 34.17068 | 27098 ft | 477 kts | 64° |
| 2026-05-08 08:57 | 40.58621 | 34.21121 | 27095 ft | 476 kts | 64° |
| 2026-05-08 08:58 | 40.59854 | 34.25154 | 27093 ft | 474 kts | 64° |
| 2026-05-08 08:58 | 40.61075 | 34.29146 | 27091 ft | 474 kts | 64° |
| 2026-05-08 08:58 | 40.62308 | 34.33176 | 27093 ft | 475 kts | 64° |
| 2026-05-08 08:58 | 40.63545 | 34.37228 | 27090 ft | 476 kts | 64° |
| 2026-05-08 08:59 | 40.64779 | 34.41287 | 27091 ft | 477 kts | 64° |
| 2026-05-08 08:59 | 40.66011 | 34.45340 | 27091 ft | 477 kts | 64° |
| 2026-05-08 08:59 | 40.67229 | 34.49347 | 27090 ft | 474 kts | 64° |
| 2026-05-08 08:59 | 40.68450 | 34.53379 | 27088 ft | 471 kts | 65° |
| 2026-05-08 09:00 | 40.69670 | 34.57407 | 27086 ft | 472 kts | 64° |
| 2026-05-08 09:00 | 40.70893 | 34.61447 | 27076 ft | 474 kts | 65° |
| 2026-05-08 09:00 | 40.72112 | 34.65487 | 27087 ft | 474 kts | 65° |
| 2026-05-08 09:00 | 40.73319 | 34.69496 | 27086 ft | 474 kts | 65° |
| 2026-05-08 09:01 | 40.74533 | 34.73533 | 27085 ft | 474 kts | 65° |
| 2026-05-08 09:01 | 40.75740 | 34.77568 | 27080 ft | 473 kts | 65° |
| 2026-05-08 09:01 | 40.76931 | 34.81639 | 27077 ft | 471 kts | 65° |
| 2026-05-08 09:01 | 40.78092 | 34.85620 | 27079 ft | 470 kts | 65° |
| 2026-05-08 09:02 | 40.79278 | 34.89642 | 27077 ft | 470 kts | 65° |
| 2026-05-08 09:02 | 40.80472 | 34.93684 | 27075 ft | 471 kts | 65° |
| 2026-05-08 09:02 | 40.81658 | 34.97734 | 27071 ft | 473 kts | 65° |
| 2026-05-08 09:02 | 40.82840 | 35.01793 | 27079 ft | 474 kts | 65° |
| 2026-05-08 09:03 | 40.84011 | 35.05802 | 27078 ft | 473 kts | 65° |
| 2026-05-08 09:03 | 40.85197 | 35.09859 | 27078 ft | 472 kts | 66° |
| 2026-05-08 09:03 | 40.86372 | 35.13894 | 27083 ft | 469 kts | 66° |
| 2026-05-08 09:03 | 40.87543 | 35.17928 | 27081 ft | 469 kts | 66° |
| 2026-05-08 09:04 | 40.88716 | 35.21964 | 27076 ft | 469 kts | 66° |
| 2026-05-08 09:04 | 40.89872 | 35.25950 | 27090 ft | 470 kts | 66° |
| 2026-05-08 09:04 | 40.91039 | 35.29985 | 27085 ft | 470 kts | 66° |
| 2026-05-08 09:04 | 40.92215 | 35.34056 | 27092 ft | 471 kts | 66° |
| 2026-05-08 09:05 | 40.93383 | 35.38107 | 27086 ft | 471 kts | 66° |
| 2026-05-08 09:05 | 40.94538 | 35.42116 | 27088 ft | 471 kts | 66° |
| 2026-05-08 09:05 | 40.95707 | 35.46179 | 27088 ft | 471 kts | 66° |
| 2026-05-08 09:05 | 40.96872 | 35.50232 | 27090 ft | 470 kts | 66° |
| 2026-05-08 09:06 | 40.97996 | 35.54161 | 27081 ft | 442 kts | 66° |
| 2026-05-08 09:06 | 40.99087 | 35.57964 | 27072 ft | 448 kts | 66° |
| 2026-05-08 09:06 | 41.00194 | 35.61804 | 27051 ft | 441 kts | 66° |
| 2026-05-08 09:06 | 41.01263 | 35.65561 | 25681 ft | 433 kts | 67° |
| 2026-05-08 09:07 | 41.02322 | 35.69280 | 24499 ft | 427 kts | 67° |
| 2026-05-08 09:07 | 41.03375 | 35.72914 | 23335 ft | 418 kts | 67° |
| 2026-05-08 09:07 | 41.04438 | 35.76459 | 22074 ft | 410 kts | 66° |
| 2026-05-08 09:07 | 41.05464 | 35.79904 | 20861 ft | 403 kts | 67° |
| 2026-05-08 09:08 | 41.06468 | 35.83348 | 19690 ft | 396 kts | 68° |
| 2026-05-08 09:08 | 41.07453 | 35.86733 | 18579 ft | 390 kts | 68° |
| 2026-05-08 09:08 | 41.08459 | 35.90013 | 18006 ft | 370 kts | 64° |
| 2026-05-08 09:08 | 41.09724 | 35.92828 | 17835 ft | 342 kts | 53° |
| 2026-05-08 09:09 | 41.11177 | 35.95126 | 17646 ft | 319 kts | 45° |
| 2026-05-08 09:09 | 41.12807 | 35.97106 | 16897 ft | 317 kts | 40° |
| 2026-05-08 09:09 | 41.14446 | 35.99048 | 16251 ft | 314 kts | 41° |
| 2026-05-08 09:09 | 41.16057 | 36.00989 | 15577 ft | 312 kts | 41° |
| 2026-05-08 09:10 | 41.17658 | 36.02913 | 14954 ft | 309 kts | 41° |
| 2026-05-08 09:10 | 41.19253 | 36.04818 | 14308 ft | 307 kts | 41° |
| 2026-05-08 09:10 | 41.20821 | 36.06694 | 13663 ft | 305 kts | 42° |
| 2026-05-08 09:10 | 41.22393 | 36.08580 | 12996 ft | 303 kts | 42° |
| 2026-05-08 09:11 | 41.23958 | 36.10459 | 12330 ft | 301 kts | 42° |
| 2026-05-08 09:11 | 41.25508 | 36.12319 | 11682 ft | 299 kts | 42° |
| 2026-05-08 09:11 | 41.26531 | 36.13549 | 11279 ft | 298 kts | 42° |
| 2026-05-08 09:11 | 41.28069 | 36.15399 | 10659 ft | 297 kts | 42° |
| 2026-05-08 09:12 | 41.29602 | 36.17242 | 10099 ft | 295 kts | 42° |
| 2026-05-08 09:12 | 41.31119 | 36.19069 | 9432 ft | 295 kts | 42° |
| 2026-05-08 09:12 | 41.32598 | 36.20849 | 9348 ft | 272 kts | 42° |
| 2026-05-08 09:12 | 41.33931 | 36.22462 | 9310 ft | 246 kts | 43° |
| 2026-05-08 09:13 | 41.35051 | 36.23902 | 9179 ft | 210 kts | 43° |
| 2026-05-08 09:13 | 41.36064 | 36.25140 | 9030 ft | 192 kts | 42° |
| 2026-05-08 09:13 | 41.37045 | 36.26349 | 8592 ft | 192 kts | 42° |
| 2026-05-08 09:13 | 41.38018 | 36.27549 | 8202 ft | 189 kts | 42° |
| 2026-05-08 09:14 | 41.38981 | 36.28736 | 7808 ft | 188 kts | 42° |
| 2026-05-08 09:14 | 41.39942 | 36.29918 | 7414 ft | 188 kts | 42° |
| 2026-05-08 09:14 | 41.40904 | 36.31102 | 7013 ft | 188 kts | 42° |
| 2026-05-08 09:14 | 41.41785 | 36.32359 | 6599 ft | 187 kts | 61° |
| 2026-05-08 09:15 | 41.41939 | 36.34000 | 6226 ft | 181 kts | 107° |
| 2026-05-08 09:15 | 41.41217 | 36.35289 | 5798 ft | 175 kts | 152° |
| 2026-05-08 09:15 | 41.40188 | 36.36115 | 5381 ft | 176 kts | 140° |
| 2026-05-08 09:15 | 41.39354 | 36.37249 | 5079 ft | 155 kts | 137° |
| 2026-05-08 09:16 | 41.38643 | 36.38217 | 4326 ft | 147 kts | 137° |
| 2026-05-08 09:16 | 41.37922 | 36.39206 | 3474 ft | 148 kts | 135° |
| 2026-05-08 09:16 | 41.37252 | 36.40165 | 3027 ft | 129 kts | 135° |
| 2026-05-08 09:16 | 41.36651 | 36.41003 | 2898 ft | 130 kts | 134° |
| 2026-05-08 09:17 | 41.35986 | 36.41932 | 2760 ft | 144 kts | 134° |
| 2026-05-08 09:17 | 41.35289 | 36.42911 | 2559 ft | 146 kts | 134° |
| 2026-05-08 09:17 | 41.34592 | 36.43887 | 2355 ft | 144 kts | 133° |
| 2026-05-08 09:17 | 41.33903 | 36.44854 | 2158 ft | 143 kts | 133° |
| 2026-05-08 09:18 | 41.33225 | 36.45809 | 1973 ft | 141 kts | 131° |
| 2026-05-08 09:18 | 41.32556 | 36.46752 | 1780 ft | 140 kts | 132° |
| 2026-05-08 09:18 | 41.31895 | 36.47679 | 1590 ft | 140 kts | 132° |
| 2026-05-08 09:18 | 41.31223 | 36.48619 | 1414 ft | 140 kts | 131° |
| 2026-05-08 09:19 | 41.30546 | 36.49570 | 1220 ft | 142 kts | 132° |
| 2026-05-08 09:19 | 41.29902 | 36.50468 | 1027 ft | 128 kts | 131° |
| 2026-05-08 09:19 | 41.29298 | 36.51315 | 860 ft | 126 kts | 131° |
| 2026-05-08 09:19 | 41.28694 | 36.52163 | 704 ft | 129 kts | 131° |
| 2026-05-08 09:20 | 41.28074 | 36.53030 | 535 ft | 129 kts | 131° |
| 2026-05-08 09:20 | 41.27452 | 36.53895 | 393 ft | 128 kts | 131° |
| 2026-05-08 09:20 | 41.26843 | 36.54774 | 179 ft | 128 kts | 130° |
| 2026-05-08 09:20 | 41.26242 | 36.55607 | 25 ft | 119 kts | 132° |
| 2026-05-08 09:21 | 41.25761 | 36.56278 | 6 ft | 65 kts | 133° |
| 2026-05-08 09:21 | 41.25581 | 36.56498 | 4 ft | 18 kts | 143° |
| 2026-05-08 09:22 | 41.25929 | 36.56035 | 4 ft | 24 kts | 312° |
| 2026-05-08 09:23 | 41.26014 | 36.55901 | 4 ft | 17 kts | 291° |
| 2026-05-08 09:23 | 41.25954 | 36.55764 | 8 ft | 20 kts | 222° |
| 2026-05-08 09:23 | 41.25861 | 36.55650 | 8 ft | 16 kts | 216° |
| 2026-05-08 09:23 | 41.27932 | 36.15233 | 10727 ft | 297 kts | 42° |
| 2026-05-08 09:24 | 41.27055 | 36.54461 | 246 ft | 131 kts | 129° |
| 2026-05-08 09:24 | 41.26452 | 36.55326 | 54 ft | 124 kts | 132° |
| 2026-05-08 09:24 | 41.26065 | 36.55839 | 17 ft | 110 kts | 131° |
| 2026-05-08 09:24 | 41.25684 | 36.56380 | 4 ft | 40 kts | 136° |
| 2026-05-08 09:25 | 41.25561 | 36.56519 | 4 ft | 5 kts | 140° |
| 2026-05-08 09:25 | 41.26730 | 36.54939 | 150 ft | 126 kts | 130° |
| 2026-05-08 09:25 | 41.26132 | 36.55752 | 24 ft | 113 kts | 132° |
| 2026-05-08 09:25 | 41.25710 | 36.56348 | 4 ft | 45 kts | 136° |
| 2026-05-08 09:26 | 41.26563 | 36.55172 | 94 ft | 125 kts | 132° |
| 2026-05-08 09:26 | 41.25990 | 36.55936 | 7 ft | 105 kts | 129° |
| 2026-05-08 09:26 | 41.25696 | 36.56366 | 4 ft | 36 kts | 136° |